Time;durP1;ratioP1;P1;durP2;ratioP2;P2;SDS_P1;SDS_P2;PMS_P1;PMS_P2;Temp;Humidity;BMP_temperature;BMP_pressure;BME280_temperature;BME280_humidity;BME280_pressure;Samples;Min_cycle;Max_cycle;Signal;HPM_P1;HPM_P2
2023/08/25 00:02:43;;;;;;;24.60;9.40;;;;;;;25.30;48.16;98776.86;67666;1281;1016524;-62
2023/08/25 00:05:46;;;;;;;24.10;9.10;;;;;;;25.25;48.33;98787.66;67636;1281;1016340;-62
2023/08/25 00:08:48;;;;;;;24.00;9.40;;;;;;;25.12;48.43;98781.52;67609;1281;1017998;-62
2023/08/25 00:11:51;;;;;;;23.90;9.20;;;;;;;25.18;48.25;98781.14;67594;1281;1016419;-62
2023/08/25 00:14:53;;;;;;;19.20;7.10;;;;;;;25.34;47.59;98774.83;67647;1281;1016390;-62
2023/08/25 00:17:56;;;;;;;21.80;8.50;;;;;;;25.19;47.42;98776.52;67618;1281;1016452;-62
2023/08/25 00:20:58;;;;;;;21.00;7.50;;;;;;;24.96;48.13;98780.96;67622;1281;1016931;-62
2023/08/25 00:24:01;;;;;;;20.20;7.30;;;;;;;24.82;48.19;98773.29;67668;1281;1016607;-62
2023/08/25 00:27:03;;;;;;;20.50;8.50;;;;;;;24.79;48.28;98775.30;67661;1281;1016434;-62
2023/08/25 00:30:06;;;;;;;21.50;8.90;;;;;;;24.73;48.59;98768.48;67625;1281;1016023;-62
2023/08/25 00:33:09;;;;;;;24.50;9.70;;;;;;;24.80;48.63;98758.60;67680;1281;1016398;-61
2023/08/25 00:36:11;;;;;;;24.10;9.40;;;;;;;24.80;48.68;98755.31;67644;1281;1016283;-62
2023/08/25 00:39:14;;;;;;;21.60;9.00;;;;;;;24.79;48.60;98757.58;67654;1281;1016391;-62
2023/08/25 00:42:16;;;;;;;25.10;9.00;;;;;;;24.83;48.34;98757.98;67610;1281;1016511;-62
2023/08/25 00:45:19;;;;;;;25.20;8.70;;;;;;;24.75;48.42;98747.52;67620;1281;1016565;-63
2023/08/25 00:48:21;;;;;;;23.70;9.70;;;;;;;24.69;48.85;98728.60;67655;1281;1016279;-61
2023/08/25 00:51:24;;;;;;;26.40;9.50;;;;;;;24.66;48.86;98716.14;67660;1281;1016477;-61
2023/08/25 00:54:26;;;;;;;24.80;9.40;;;;;;;24.60;49.12;98711.61;67592;1281;1016420;-62
2023/08/25 00:57:31;;;;;;;22.70;9.40;;;;;;;24.61;49.33;98724.98;67599;1281;1016532;-62
2023/08/25 01:00:34;;;;;;;23.30;9.10;;;;;;;24.71;49.00;98740.35;67646;1281;1016475;-62
2023/08/25 01:03:38;;;;;;;25.10;9.20;;;;;;;24.58;49.06;98746.88;67601;1281;1016515;-62
2023/08/25 01:06:40;;;;;;;24.30;9.30;;;;;;;24.47;48.98;98746.39;67609;1281;1016386;-62
2023/08/25 01:09:43;;;;;;;25.70;9.50;;;;;;;24.50;48.91;98736.91;67585;1281;1016203;-61
2023/08/25 01:12:45;;;;;;;22.80;9.20;;;;;;;24.52;48.81;98728.45;67657;1281;1016457;-62
2023/08/25 01:15:47;;;;;;;24.00;9.20;;;;;;;24.41;49.16;98724.95;67684;1281;1016496;-62
2023/08/25 01:18:50;;;;;;;28.10;10.30;;;;;;;24.11;49.89;98721.46;67645;1281;1015772;-62
2023/08/25 01:21:53;;;;;;;24.70;9.50;;;;;;;24.13;50.01;98713.48;67618;1281;1016529;-61
2023/08/25 01:24:55;;;;;;;23.40;9.30;;;;;;;24.18;50.18;98711.10;67654;1281;1016616;-62
2023/08/25 01:27:57;;;;;;;25.80;9.80;;;;;;;24.16;50.19;98708.08;67647;1281;1016318;-62
2023/08/25 01:31:00;;;;;;;27.70;10.80;;;;;;;24.19;50.17;98703.42;67671;1281;1016113;-62
2023/08/25 01:34:02;;;;;;;24.20;9.70;;;;;;;24.37;49.91;98701.11;67587;1281;1016442;-61
2023/08/25 01:37:05;;;;;;;23.80;10.10;;;;;;;24.38;50.11;98703.38;67598;1281;1016526;-62
2023/08/25 01:40:07;;;;;;;;;;;;;;;24.39;50.49;98711.27;67664;1281;1016229;-61
2023/08/25 01:43:09;;;;;;;23.40;9.60;;;;;;;24.45;50.19;98712.34;67632;1281;1016468;-61
2023/08/25 01:46:12;;;;;;;22.70;9.40;;;;;;;24.36;50.14;98713.63;67651;1281;1016351;-62
2023/08/25 01:49:15;;;;;;;25.60;9.50;;;;;;;24.28;50.32;98707.95;67586;1281;1018714;-61
2023/08/25 01:52:17;;;;;;;24.40;10.70;;;;;;;24.06;50.91;98697.91;67601;1281;1016264;-61
2023/08/25 01:55:19;;;;;;;25.00;10.50;;;;;;;24.47;49.90;98699.09;67622;1281;1016931;-62
2023/08/25 01:58:22;;;;;;;26.10;10.50;;;;;;;24.60;49.68;98706.94;67650;1281;1016279;-61
2023/08/25 02:01:25;;;;;;;24.80;10.40;;;;;;;24.62;49.92;98711.95;67656;1281;1016494;-61
2023/08/25 02:04:28;;;;;;;25.70;10.30;;;;;;;24.82;49.42;98707.31;67671;1281;1016465;-61
2023/08/25 02:07:30;;;;;;;27.40;10.30;;;;;;;24.88;48.92;98704.98;67666;1281;1016458;-61
2023/08/25 02:10:33;;;;;;;24.40;9.60;;;;;;;24.88;48.78;98702.21;67619;1281;1016481;-62
2023/08/25 02:13:36;;;;;;;22.80;9.90;;;;;;;24.83;48.78;98685.95;67623;1281;1016367;-62
2023/08/25 02:16:39;;;;;;;23.70;10.70;;;;;;;24.76;48.95;98681.98;67593;1281;1016299;-61
2023/08/25 02:19:41;;;;;;;;;;;;;;;24.57;49.28;98678.23;67574;1281;1016449;-61
2023/08/25 02:22:44;;;;;;;26.70;10.40;;;;;;;24.58;49.44;98680.80;67672;1257;1016412;-61
2023/08/25 02:25:46;;;;;;;25.30;11.40;;;;;;;24.73;49.14;98673.95;67672;1281;1016469;-62
2023/08/25 02:28:49;;;;;;;24.30;10.90;;;;;;;24.76;49.03;98675.55;67612;1281;1016451;-61
2023/08/25 02:31:51;;;;;;;23.80;10.80;;;;;;;24.73;49.35;98682.02;67610;1281;1016137;-62
2023/08/25 02:34:53;;;;;;;;;;;;;;;24.76;48.90;98671.60;67652;1281;1016406;-62
2023/08/25 02:37:56;;;;;;;26.20;11.30;;;;;;;24.68;48.97;98667.63;67633;1281;1016354;-61
2023/08/25 02:40:59;;;;;;;25.20;11.20;;;;;;;24.63;49.28;98664.06;67656;1281;1016383;-61
2023/08/25 02:44:01;;;;;;;26.30;10.80;;;;;;;24.63;49.14;98652.67;67621;1281;1016364;-62
2023/08/25 02:47:04;;;;;;;;;;;;;;;24.70;49.02;98650.85;67578;1281;1016431;-62
2023/08/25 02:50:06;;;;;;;26.50;11.20;;;;;;;24.71;49.30;98654.83;67646;1281;1017120;-62
2023/08/25 02:53:08;;;;;;;25.10;11.10;;;;;;;24.79;49.14;98659.48;67639;1281;1018955;-61
2023/08/25 02:56:11;;;;;;;26.10;10.80;;;;;;;24.86;49.19;98657.22;67617;1281;1016532;-61
2023/08/25 02:59:13;;;;;;;25.20;10.70;;;;;;;24.87;49.07;98659.54;67614;1281;1016779;-61
2023/08/25 03:02:16;;;;;;;25.90;10.90;;;;;;;24.84;49.14;98661.36;67607;1281;1016310;-61
2023/08/25 03:05:18;;;;;;;24.10;10.90;;;;;;;24.79;49.27;98658.21;67661;1281;1016410;-62
2023/08/25 03:08:22;;;;;;;24.40;10.60;;;;;;;24.76;49.42;98652.15;67624;1281;1016517;-61
2023/08/25 03:11:25;;;;;;;24.40;10.70;;;;;;;24.83;49.36;98648.42;67607;1281;1016959;-61
2023/08/25 03:14:28;;;;;;;27.10;10.80;;;;;;;24.87;49.01;98637.71;67612;1281;1016447;-61
2023/08/25 03:17:30;;;;;;;23.80;9.90;;;;;;;24.79;49.39;98631.40;67667;1281;1016525;-61
2023/08/25 03:20:33;;;;;;;27.20;10.90;;;;;;;24.75;49.56;98623.48;67651;1281;1018127;-61
2023/08/25 03:23:35;;;;;;;26.10;11.40;;;;;;;24.76;49.79;98628.43;67606;1281;1016441;-61
2023/08/25 03:26:38;;;;;;;26.50;11.10;;;;;;;24.81;49.93;98625.64;67630;1281;1016241;-62
2023/08/25 03:29:40;;;;;;;25.80;11.70;;;;;;;24.91;49.75;98628.44;67626;1281;1016889;-61
2023/08/25 03:32:43;;;;;;;27.40;11.90;;;;;;;25.05;49.66;98626.02;67652;1281;1016519;-62
2023/08/25 03:35:45;;;;;;;25.30;10.70;;;;;;;25.17;49.49;98630.12;67653;1281;1016192;-62
2023/08/25 03:38:48;;;;;;;26.50;11.90;;;;;;;25.34;49.44;98634.55;67602;1281;1016644;-61
2023/08/25 03:41:50;;;;;;;28.20;12.40;;;;;;;25.38;49.32;98636.84;67598;1281;1019837;-61
2023/08/25 03:44:53;;;;;;;27.80;11.00;;;;;;;25.44;48.97;98634.30;67614;1281;1016468;-61
2023/08/25 03:47:55;;;;;;;25.50;10.90;;;;;;;25.33;49.34;98634.33;67631;1281;1015977;-61
2023/08/25 03:50:58;;;;;;;26.30;12.10;;;;;;;25.41;49.24;98629.03;67598;1281;1016433;-62
2023/08/25 03:54:00;;;;;;;24.60;11.20;;;;;;;25.33;49.23;98617.31;67615;1281;1016438;-62
2023/08/25 03:57:04;;;;;;;27.60;11.00;;;;;;;25.33;49.30;98612.18;67651;1281;1016456;-61
2023/08/25 04:00:07;;;;;;;25.50;10.70;;;;;;;25.33;49.13;98609.89;67600;1281;1016343;-61
2023/08/25 04:03:10;;;;;;;24.90;11.00;;;;;;;25.24;49.53;98603.51;67569;1281;1016110;-61
2023/08/25 04:06:12;;;;;;;26.30;11.50;;;;;;;25.21;49.53;98610.46;67579;1281;1016435;-61
2023/08/25 04:09:15;;;;;;;24.70;11.10;;;;;;;25.32;49.74;98612.46;67644;1281;1016423;-62
2023/08/25 04:12:18;;;;;;;26.70;11.00;;;;;;;25.53;49.20;98614.51;67609;1281;1016386;-61
2023/08/25 04:15:20;;;;;;;28.70;11.80;;;;;;;25.59;49.13;98615.92;67623;1281;1016449;-61
2023/08/25 04:18:23;;;;;;;26.70;11.20;;;;;;;25.71;48.88;98620.16;67642;1281;1016261;-62
2023/08/25 04:21:25;;;;;;;25.60;10.80;;;;;;;25.70;49.26;98625.36;67663;1281;1016465;-61
2023/08/25 04:24:28;;;;;;;27.00;11.20;;;;;;;25.76;49.09;98626.47;67626;1281;1016101;-61
2023/08/25 04:27:30;;;;;;;26.60;11.30;;;;;;;25.81;49.01;98627.13;67605;1281;1016490;-61
2023/08/25 04:30:32;;;;;;;26.70;10.50;;;;;;;25.81;48.99;98625.14;67584;1281;1016259;-62
2023/08/25 04:33:35;;;;;;;26.00;10.00;;;;;;;25.88;48.92;98620.94;67667;1281;1016322;-63
2023/08/25 04:36:39;;;;;;;29.40;11.30;;;;;;;26.09;48.43;98623.11;67641;1281;1016374;-62
2023/08/25 04:39:42;;;;;;;26.60;10.90;;;;;;;26.21;48.53;98623.23;67584;1281;1016376;-62
2023/08/25 04:42:44;;;;;;;24.90;10.60;;;;;;;26.40;48.14;98621.05;67605;1281;1016461;-61
2023/08/25 04:45:47;;;;;;;23.90;10.50;;;;;;;26.48;48.07;98618.85;67623;1281;1016420;-62
2023/08/25 04:48:49;;;;;;;24.30;11.20;;;;;;;26.51;47.90;98614.11;67627;1281;1016389;-62
2023/08/25 04:51:52;;;;;;;24.10;10.70;;;;;;;26.51;48.16;98618.73;67518;1281;1015950;-62
2023/08/25 04:54:54;;;;;;;27.40;10.70;;;;;;;26.74;48.36;98623.86;67608;1281;1016458;-62
2023/08/25 04:57:57;;;;;;;25.40;11.20;;;;;;;27.22;48.04;98620.55;67619;1281;1016252;-61
2023/08/25 05:00:59;;;;;;;27.60;10.50;;;;;;;27.64;47.71;98620.48;67605;1281;1016364;-61
2023/08/25 05:04:02;;;;;;;25.00;10.10;;;;;;;27.79;47.53;98612.30;67472;1281;1018022;-61
2023/08/25 05:07:04;;;;;;;26.40;10.80;;;;;;;28.02;47.12;98598.01;67476;1281;1016308;-62
2023/08/25 05:10:08;;;;;;;25.20;9.50;;;;;;;28.08;46.90;98597.61;67551;1281;1016105;-62
2023/08/25 05:13:12;;;;;;;25.30;9.80;;;;;;;28.13;46.79;98595.32;67567;1281;1016328;-62
2023/08/25 05:16:18;;;;;;;23.00;9.30;;;;;;;28.24;46.32;98597.22;67584;1281;1016451;-62
2023/08/25 05:19:21;;;;;;;24.30;9.70;;;;;;;28.29;46.17;98591.35;67612;1281;1016636;-62
2023/08/25 05:22:23;;;;;;;24.00;9.70;;;;;;;28.34;46.20;98581.51;67626;1281;1016485;-61
2023/08/25 05:25:26;;;;;;;27.70;11.70;;;;;;;28.48;46.29;98568.41;67592;1281;1016397;-62
2023/08/25 05:28:29;;;;;;;34.70;15.70;;;;;;;28.56;45.94;98563.83;67634;1281;1016195;-61
2023/08/25 05:31:32;;;;;;;34.80;14.70;;;;;;;28.66;46.21;98561.67;67610;1281;1016562;-62
2023/08/25 05:34:34;;;;;;;29.30;12.00;;;;;;;29.04;45.89;98558.18;67582;1281;1016492;-62
2023/08/25 05:37:37;;;;;;;25.90;12.40;;;;;;;29.30;45.34;98550.30;67629;1281;1016384;-61
2023/08/25 05:40:39;;;;;;;27.00;11.00;;;;;;;29.55;44.86;98543.98;67654;1281;1018899;-62
2023/08/25 05:43:42;;;;;;;26.00;11.00;;;;;;;29.55;44.80;98539.73;67604;1281;1017809;-61
2023/08/25 05:46:44;;;;;;;23.50;10.60;;;;;;;29.56;44.61;98547.90;67589;1281;1016364;-62
2023/08/25 05:49:47;;;;;;;23.10;9.70;;;;;;;29.54;44.43;98552.55;67619;1281;1016720;-62
2023/08/25 05:52:50;;;;;;;24.80;10.00;;;;;;;29.69;44.11;98546.63;67607;1281;1019370;-62
2023/08/25 05:55:53;;;;;;;23.50;9.10;;;;;;;29.97;44.62;98548.41;67591;1281;1016909;-62
2023/08/25 05:58:55;;;;;;;23.20;9.20;;;;;;;30.39;44.09;98542.40;67628;1281;1016926;-62
2023/08/25 06:01:58;;;;;;;24.80;8.90;;;;;;;30.89;43.53;98529.27;67652;1281;1017378;-62
2023/08/25 06:05:00;;;;;;;22.50;8.90;;;;;;;31.16;42.85;98527.10;67592;1281;1016307;-62
2023/08/25 06:08:03;;;;;;;24.90;9.70;;;;;;;31.09;42.84;98529.05;67589;1281;1016498;-62
2023/08/25 06:11:07;;;;;;;23.60;8.90;;;;;;;31.15;42.55;98531.80;67651;1281;1016192;-61
2023/08/25 06:14:09;;;;;;;22.60;8.30;;;;;;;31.31;42.54;98536.05;67638;1281;1015873;-61
2023/08/25 06:17:12;;;;;;;22.60;8.20;;;;;;;31.33;42.36;98536.01;67622;1281;1016488;-61
2023/08/25 06:20:15;;;;;;;21.40;8.20;;;;;;;31.40;42.44;98530.09;67578;1281;1016127;-61
2023/08/25 06:23:17;;;;;;;23.80;8.30;;;;;;;31.54;42.06;98529.89;67649;1281;1016515;-62
2023/08/25 06:26:20;;;;;;;22.30;8.10;;;;;;;31.54;42.14;98530.48;67617;1281;1016393;-61
2023/08/25 06:29:23;;;;;;;24.70;8.20;;;;;;;31.70;41.65;98533.27;67587;1281;1016480;-61
2023/08/25 06:32:25;;;;;;;21.20;8.60;;;;;;;31.68;41.69;98533.43;67620;1281;1016250;-62
2023/08/25 06:35:29;;;;;;;22.70;9.10;;;;;;;31.56;41.77;98522.35;67578;1281;1016680;-62
2023/08/25 06:38:32;;;;;;;24.40;8.90;;;;;;;31.47;41.69;98511.55;67631;1281;1016503;-61
2023/08/25 06:41:34;;;;;;;23.10;8.90;;;;;;;31.32;41.78;98513.02;67610;1281;1017168;-62
2023/08/25 06:44:37;;;;;;;22.90;9.20;;;;;;;31.20;41.74;98536.20;67530;1280;1015754;-62
2023/08/25 06:47:39;;;;;;;26.00;9.40;;;;;;;30.74;41.96;98556.77;67565;1281;1016356;-62
2023/08/25 06:50:42;;;;;;;22.20;9.30;;;;;;;30.58;42.36;98555.26;67590;1281;1016788;-61
2023/08/25 06:53:44;;;;;;;22.40;9.10;;;;;;;30.51;42.56;98550.66;67579;1281;1016443;-62
2023/08/25 06:56:47;;;;;;;25.80;10.30;;;;;;;30.42;42.81;98545.57;67620;1281;1016874;-61
2023/08/25 06:59:49;;;;;;;26.30;9.50;;;;;;;30.49;42.88;98542.73;67589;1281;1016633;-62
2023/08/25 07:02:51;;;;;;;24.00;10.20;;;;;;;30.56;43.10;98543.63;67591;1281;1016465;-61
2023/08/25 07:05:54;;;;;;;23.00;9.30;;;;;;;30.68;43.05;98539.92;67653;1281;1018607;-61
2023/08/25 07:08:56;;;;;;;21.90;9.40;;;;;;;30.77;42.88;98532.95;67640;1281;1016293;-62
2023/08/25 07:11:59;;;;;;;23.80;9.90;;;;;;;30.77;43.06;98523.42;67629;1281;1016291;-62
2023/08/25 07:15:01;;;;;;;23.10;9.60;;;;;;;30.76;42.88;98526.18;67574;1281;1016489;-62
2023/08/25 07:18:03;;;;;;;22.30;9.00;;;;;;;30.68;42.96;98528.50;67588;1281;1016285;-62
2023/08/25 07:21:07;;;;;;;23.20;8.90;;;;;;;30.65;43.05;98532.88;67628;1281;1017714;-61
2023/08/25 07:24:09;;;;;;;26.20;9.50;;;;;;;30.76;42.92;98529.35;67579;1281;1016092;-62
2023/08/25 07:27:12;;;;;;;21.80;9.00;;;;;;;30.82;42.77;98524.15;67627;1281;1016235;-62
2023/08/25 07:30:15;;;;;;;22.80;9.00;;;;;;;30.86;42.57;98515.33;67621;1281;1016145;-61
2023/08/25 07:33:17;;;;;;;23.20;9.10;;;;;;;30.93;42.32;98517.05;67591;1281;1016225;-61
2023/08/25 07:36:20;;;;;;;21.80;8.70;;;;;;;30.97;42.32;98512.40;67583;1281;1016475;-62
2023/08/25 07:39:22;;;;;;;24.50;9.70;;;;;;;30.99;42.54;98517.38;67613;1281;1016421;-61
2023/08/25 07:42:26;;;;;;;22.10;9.40;;;;;;;31.25;42.49;98507.64;67623;1281;1016230;-61
2023/08/25 07:45:29;;;;;;;22.90;9.50;;;;;;;31.29;42.50;98506.23;67648;1281;1018681;-62
2023/08/25 07:48:32;;;;;;;21.70;8.20;;;;;;;31.30;42.32;98488.64;67567;1281;1016224;-62
2023/08/25 07:51:34;;;;;;;20.90;8.10;;;;;;;31.32;42.22;98475.94;67641;1281;1016608;-61
2023/08/25 07:54:37;;;;;;;23.50;8.60;;;;;;;31.32;42.29;98466.30;67623;1281;1018239;-61
2023/08/25 07:57:40;;;;;;;22.60;9.30;;;;;;;31.47;41.91;98470.36;67604;1281;1016495;-60
2023/08/25 08:00:43;;;;;;;22.10;7.80;;;;;;;31.53;41.94;98466.66;67598;1281;1016288;-61
2023/08/25 08:03:45;;;;;;;22.60;8.60;;;;;;;31.71;42.05;98466.29;67632;1281;1016437;-61
2023/08/25 08:06:48;;;;;;;21.00;8.10;;;;;;;31.82;41.97;98473.02;67559;1281;1016507;-62
2023/08/25 08:09:50;;;;;;;21.30;8.50;;;;;;;32.17;42.03;98482.00;67568;1281;1016546;-61
2023/08/25 08:12:53;;;;;;;22.90;8.70;;;;;;;32.54;41.68;98476.48;67621;1281;1016434;-61
2023/08/25 08:15:55;;;;;;;20.30;8.00;;;;;;;33.02;41.42;98474.45;67606;1281;1016302;-62
2023/08/25 08:18:58;;;;;;;21.90;8.00;;;;;;;33.54;40.69;98469.55;67585;1281;1016639;-62
2023/08/25 08:22:02;;;;;;;23.90;8.00;;;;;;;33.81;40.72;98471.86;67616;1281;1018236;-62
2023/08/25 08:25:05;;;;;;;22.60;7.90;;;;;;;33.99;40.32;98469.50;67610;1281;1016486;-61
2023/08/25 08:28:08;;;;;;;23.10;8.00;;;;;;;33.86;39.95;98469.63;67581;1281;1016323;-62
2023/08/25 08:31:17;;;;;;;20.50;7.60;;;;;;;33.72;39.64;98476.57;67623;1281;1016431;-61
2023/08/25 08:34:20;;;;;;;21.90;8.10;;;;;;;33.62;39.62;98482.05;67570;1281;1016389;-61
2023/08/25 08:37:23;;;;;;;22.70;7.90;;;;;;;33.61;39.70;98486.80;67607;1281;1018450;-61
2023/08/25 08:40:25;;;;;;;21.60;7.80;;;;;;;33.76;39.66;98488.36;67614;1281;1016672;-62
2023/08/25 08:43:28;;;;;;;22.00;8.00;;;;;;;33.91;39.19;98497.64;67591;1281;1016241;-61
2023/08/25 08:46:30;;;;;;;21.60;7.80;;;;;;;33.66;38.86;98503.94;67581;1281;1015819;-60
2023/08/25 08:49:33;;;;;;;23.30;8.80;;;;;;;33.36;39.36;98512.29;67609;1281;1016853;-60
2023/08/25 08:52:36;;;;;;;23.70;9.60;;;;;;;33.11;39.25;98515.58;67619;1281;1016162;-59
2023/08/25 08:55:39;;;;;;;23.40;9.60;;;;;;;32.98;39.39;98520.06;67618;1281;1018928;-60
2023/08/25 08:58:43;;;;;;;24.20;9.80;;;;;;;33.05;39.52;98522.29;67620;1281;1016280;-59
2023/08/25 09:01:51;;;;;;;24.80;9.90;;;;;;;33.18;39.47;98527.23;67223;1281;4666869;-59
2023/08/25 09:04:53;;;;;;;22.90;9.00;;;;;;;33.13;39.97;98527.69;67606;1281;1016372;-59
2023/08/25 09:07:56;;;;;;;22.50;9.00;;;;;;;33.65;40.12;98525.89;67633;1281;1016492;-59
2023/08/25 09:10:58;;;;;;;24.90;9.90;;;;;;;34.28;39.88;98527.56;67571;1281;1016074;-59
2023/08/25 09:14:04;;;;;;;23.60;8.90;;;;;;;34.61;39.75;98523.04;67581;1281;1016331;-59
2023/08/25 09:17:07;;;;;;;21.70;8.80;;;;;;;35.13;38.99;98515.05;67584;1281;1016410;-59
2023/08/25 09:20:10;;;;;;;20.80;8.30;;;;;;;35.44;39.39;98506.65;67615;1281;1016233;-59
2023/08/25 09:23:12;;;;;;;22.40;8.60;;;;;;;36.05;38.99;98502.19;67607;1281;1016098;-59
2023/08/25 09:26:15;;;;;;;21.60;8.20;;;;;;;36.43;38.34;98498.20;67571;1281;1018726;-60
2023/08/25 09:29:18;;;;;;;20.80;7.60;;;;;;;36.59;38.27;98494.23;67640;1281;1016781;-59
2023/08/25 09:32:22;;;;;;;22.00;8.00;;;;;;;36.70;38.15;98492.05;67622;1281;1016732;-59
2023/08/25 09:35:25;;;;;;;19.50;7.10;;;;;;;36.89;37.67;98490.76;67574;1281;1016137;-60
2023/08/25 09:38:27;;;;;;;21.30;7.60;;;;;;;36.82;37.56;98496.27;67563;1281;1017285;-59
2023/08/25 09:41:32;;;;;;;18.60;6.60;;;;;;;36.81;37.58;98496.16;67628;1281;1016396;-60
2023/08/25 09:44:34;;;;;;;20.50;6.90;;;;;;;36.74;37.62;98494.95;67620;1281;1016648;-60
2023/08/25 09:47:37;;;;;;;19.80;6.40;;;;;;;36.56;37.34;98489.58;67603;1281;1016639;-59
2023/08/25 09:50:39;;;;;;;19.40;6.50;;;;;;;36.46;37.22;98491.70;67573;1281;1016440;-59
2023/08/25 09:53:42;;;;;;;18.60;5.90;;;;;;;36.91;36.99;98487.64;67564;1281;1016188;-59
2023/08/25 09:56:47;;;;;;;20.50;6.30;;;;;;;36.95;36.45;98486.05;67608;1281;1016314;-59
2023/08/25 09:59:50;;;;;;;18.80;6.10;;;;;;;37.02;36.27;98481.39;67546;1281;1016395;-59
2023/08/25 10:02:53;;;;;;;18.80;6.00;;;;;;;37.52;36.29;98481.41;67566;1281;1017003;-60
2023/08/25 10:06:01;;;;;;;18.90;5.70;;;;;;;37.94;35.73;98484.36;67597;1281;1016001;-60
2023/08/25 10:09:03;;;;;;;19.00;5.70;;;;;;;38.21;35.41;98479.35;67566;1281;1016479;-60
2023/08/25 10:12:07;;;;;;;17.60;5.30;;;;;;;38.51;34.50;98476.41;67556;1281;1016498;-59
2023/08/25 10:15:10;;;;;;;19.70;6.00;;;;;;;38.60;34.46;98474.16;67549;1281;1016446;-60
2023/08/25 10:18:12;;;;;;;18.40;5.90;;;;;;;38.69;34.61;98472.55;67614;1281;1016846;-60
2023/08/25 10:21:15;;;;;;;20.30;6.30;;;;;;;39.04;34.34;98473.29;67648;1281;1016309;-60
2023/08/25 10:24:17;;;;;;;20.20;6.00;;;;;;;39.60;34.07;98464.02;67581;1281;1015801;-60
2023/08/25 10:27:22;;;;;;;17.40;5.70;;;;;;;40.10;33.34;98463.94;67572;1281;1016223;-59
2023/08/25 10:30:24;;;;;;;20.30;6.10;;;;;;;40.40;31.51;98462.95;67605;1281;1016629;-59
2023/08/25 10:33:27;;;;;;;19.30;6.20;;;;;;;40.34;31.91;98457.03;67582;1281;1016460;-60
2023/08/25 10:36:29;;;;;;;21.90;5.90;;;;;;;40.30;31.38;98454.80;67517;1281;1018003;-60
2023/08/25 10:39:32;;;;;;;19.70;6.30;;;;;;;40.38;31.57;98456.11;67565;1281;1016360;-59
2023/08/25 10:42:35;;;;;;;17.20;5.70;;;;;;;40.32;31.23;98456.09;67595;1281;1016683;-60
2023/08/25 10:45:37;;;;;;;17.50;5.80;;;;;;;40.06;30.91;98452.57;67576;1281;1016833;-60
2023/08/25 10:48:40;;;;;;;20.10;6.00;;;;;;;39.84;31.12;98452.27;67576;1281;1016452;-59
2023/08/25 10:51:42;;;;;;;19.00;6.00;;;;;;;40.28;30.93;98448.95;67620;1281;1016300;-60
2023/08/25 10:54:45;;;;;;;18.90;6.30;;;;;;;40.58;31.01;98449.77;67620;1281;1016805;-60
2023/08/25 10:57:47;;;;;;;19.50;6.30;;;;;;;40.94;30.72;98441.06;67566;1281;1018324;-60
2023/08/25 11:00:51;;;;;;;21.30;6.80;;;;;;;41.11;30.33;98441.54;67581;1281;1016092;-59
2023/08/25 11:03:54;;;;;;;18.10;6.40;;;;;;;40.92;30.09;98439.89;67547;1281;1017325;-60
2023/08/25 11:06:57;;;;;;;20.60;6.50;;;;;;;40.94;30.38;98435.25;67609;1281;1016823;-59
2023/08/25 11:10:01;;;;;;;17.50;6.50;;;;;;;41.13;30.41;98437.30;67596;1281;1015796;-59
2023/08/25 11:13:04;;;;;;;18.50;7.10;;;;;;;41.29;30.73;98436.89;67558;1281;1016431;-59
2023/08/25 11:16:06;;;;;;;20.00;7.20;;;;;;;41.35;30.83;98431.29;67554;1281;1016393;-59
2023/08/25 11:19:08;;;;;;;20.20;7.10;;;;;;;41.54;30.65;98431.33;67627;1281;1016523;-60
2023/08/25 11:22:11;;;;;;;20.10;7.10;;;;;;;41.49;30.50;98428.87;67621;1281;1016891;-60
2023/08/25 11:25:15;;;;;;;21.60;7.30;;;;;;;41.64;30.50;98435.42;67604;1281;1016260;-59
2023/08/25 11:28:19;;;;;;;18.30;6.90;;;;;;;41.76;30.80;98433.97;67619;1281;1016617;-60
2023/08/25 11:31:22;;;;;;;19.90;6.80;;;;;;;41.56;30.90;98430.35;67627;1281;1016436;-59
2023/08/25 11:34:25;;;;;;;18.80;6.70;;;;;;;41.58;30.86;98430.15;67552;1281;1016587;-59
2023/08/25 11:37:27;;;;;;;21.00;7.10;;;;;;;41.90;30.88;98434.20;67616;1281;1016494;-59
2023/08/25 11:40:30;;;;;;;20.00;7.10;;;;;;;42.27;30.55;98428.95;67621;1281;1007862;-59
2023/08/25 11:43:34;;;;;;;19.40;7.10;;;;;;;42.44;30.03;98429.36;67576;1281;1007766;-59
2023/08/25 11:46:37;;;;;;;21.10;7.30;;;;;;;42.36;29.95;98429.80;67630;1281;1008171;-60
2023/08/25 11:49:39;;;;;;;17.70;6.60;;;;;;;42.15;30.21;98426.81;67655;1281;1007732;-60
2023/08/25 11:52:41;;;;;;;18.70;6.70;;;;;;;42.43;30.02;98428.67;67616;1281;1015953;-59
2023/08/25 11:55:44;;;;;;;22.30;7.20;;;;;;;42.22;30.00;98425.27;67643;1281;1007516;-60
2023/08/25 11:58:46;;;;;;;22.30;7.70;;;;;;;42.02;29.95;98419.13;67603;1281;1008302;-59
2023/08/25 12:01:49;;;;;;;18.40;7.30;;;;;;;41.99;29.86;98417.21;67592;1281;1016499;-60
2023/08/25 12:04:51;;;;;;;19.50;7.30;;;;;;;41.73;30.01;98416.90;67625;1281;1016410;-59
2023/08/25 12:07:53;;;;;;;19.10;6.90;;;;;;;41.81;30.14;98416.27;67612;1281;1016531;-59
2023/08/25 12:10:56;;;;;;;20.20;7.20;;;;;;;41.83;30.26;98422.71;67641;1281;1016011;-60
2023/08/25 12:13:59;;;;;;;18.20;6.90;;;;;;;41.92;30.13;98410.65;67607;1281;1007859;-59
2023/08/25 12:17:02;;;;;;;18.90;7.10;;;;;;;41.94;29.66;98418.05;67632;1281;1016702;-59
2023/08/25 12:20:04;;;;;;;20.70;7.00;;;;;;;41.96;29.94;98417.67;67572;1281;1016221;-59
2023/08/25 12:23:07;;;;;;;19.10;6.40;;;;;;;42.07;29.23;98410.63;67584;1281;1008046;-59
2023/08/25 12:26:09;;;;;;;18.80;6.40;;;;;;;42.21;28.95;98408.17;67639;1281;1007759;-59
2023/08/25 12:29:12;;;;;;;21.90;6.50;;;;;;;41.97;28.43;98403.44;67633;1281;1007351;-60
2023/08/25 12:32:14;;;;;;;24.90;6.80;;;;;;;41.83;28.48;98400.33;67626;1281;1007856;-60
2023/08/25 12:35:16;;;;;;;24.50;7.50;;;;;;;41.99;28.55;98399.52;67578;1281;1016270;-59
2023/08/25 12:38:19;;;;;;;20.50;6.90;;;;;;;42.03;28.73;98402.41;67580;1281;1016294;-59
2023/08/25 12:41:21;;;;;;;19.30;5.90;;;;;;;42.01;27.87;98393.98;67618;1281;1016233;-59
2023/08/25 12:44:24;;;;;;;18.40;5.70;;;;;;;42.00;27.41;98394.19;67638;1281;1016436;-59
2023/08/25 12:47:26;;;;;;;18.70;5.80;;;;;;;41.92;27.24;98391.44;67587;1281;1017156;-59
2023/08/25 12:50:29;;;;;;;18.60;5.70;;;;;;;41.51;26.79;98393.98;67562;1281;1016243;-59
2023/08/25 12:53:31;;;;;;;19.10;5.60;;;;;;;41.00;27.62;98383.38;67605;1281;1016452;-59
2023/08/25 12:56:34;;;;;;;17.80;5.50;;;;;;;40.41;28.33;98380.91;67592;1281;1016361;-59
2023/08/25 12:59:36;;;;;;;18.30;5.90;;;;;;;40.44;28.18;98382.17;67572;1281;1016825;-60
2023/08/25 13:02:39;;;;;;;17.70;5.60;;;;;;;40.58;28.34;98383.65;67566;1281;1016403;-60
2023/08/25 13:05:41;;;;;;;18.10;5.20;;;;;;;40.55;28.41;98386.52;67574;1281;1016509;-59
2023/08/25 13:08:44;;;;;;;17.60;5.40;;;;;;;40.75;28.00;98386.43;67606;1281;1016573;-59
2023/08/25 13:11:47;;;;;;;19.70;6.30;;;;;;;41.03;28.04;98391.74;67585;1281;1016447;-59
2023/08/25 13:14:50;;;;;;;19.00;6.40;;;;;;;41.35;27.88;98396.73;67604;1281;1016472;-59
2023/08/25 13:17:52;;;;;;;19.40;6.30;;;;;;;41.49;27.99;98398.20;67594;1281;1016504;-59
2023/08/25 13:20:55;;;;;;;18.00;6.20;;;;;;;41.68;27.86;98396.85;67550;1281;1016391;-59
2023/08/25 13:23:57;;;;;;;18.70;6.00;;;;;;;41.54;27.07;98396.05;67559;1281;1016447;-59
2023/08/25 13:26:59;;;;;;;21.70;6.50;;;;;;;40.92;28.33;98396.23;67616;1281;1016810;-59
2023/08/25 13:30:02;;;;;;;17.80;5.90;;;;;;;41.20;27.74;98395.02;67601;1281;1016711;-59
2023/08/25 13:33:04;;;;;;;17.20;5.70;;;;;;;41.18;28.30;98385.35;67601;1281;1018799;-59
2023/08/25 13:36:07;;;;;;;20.20;5.80;;;;;;;41.46;27.37;98390.58;67583;1281;1016131;-59
2023/08/25 13:39:09;;;;;;;19.70;6.20;;;;;;;41.39;27.14;98383.61;67548;1281;1016369;-59
2023/08/25 13:42:12;;;;;;;19.50;5.80;;;;;;;41.21;27.24;98384.51;67610;1281;1016347;-59
2023/08/25 13:45:14;;;;;;;16.20;4.90;;;;;;;41.50;26.45;98383.48;67631;1281;1016609;-59
2023/08/25 13:48:16;;;;;;;18.40;4.90;;;;;;;40.92;26.88;98390.63;67625;1281;1016944;-59
2023/08/25 13:51:19;;;;;;;18.30;5.00;;;;;;;40.82;27.21;98391.67;67567;1281;1016512;-59